« Back
NWS Peachtree City, Ga » Text Product » CSG Terminal Aerodrome Forecast


Printer-friendly Version
Current Version              Previous Versions:   1  2  3  4  5  6  7  8  9  

Terminal Aerodrome Forecast

234
FTUS42 KFFC 282324
TAFCSG
TAF
KCSG 282324Z 2900/2924 35010KT P6SM BKN110
     FM290300 VRB03KT P6SM BKN100
     FM291200 09004KT P6SM SCT120
     FM291500 13007KT P6SM SKC
     FM291900 16008KT P6SM SCT050=

USA.gov is the U.S. government's official web portal to all federal, state and local government web resources and services.